Flick Point, California
Current Conditions -  °F | °C
As of 3:45 PM on Tuesday 25 Nov 2014 (Local Time) from KTRK Reporting Station
Clear Clear  
Wind Chill: 61°   Ceiling: Unl
Heat Index: 61°   Visibility: 10mi
Dew Point: 28°   Wind: 0mph
Humidity: 29%   Direction: NA
Pressure: 30.48"   Gusts: NA
Location:  39.2392°N, 120.102°W
Report Text: KTRK 252345Z 00000KT 10SM SKC 16/M02 A3048 RMK NOSPECI 10170
Loading
Personal Weather Stations






























Interactive Weather Map New forecast layout! Learn more

10-Day Weather Forecast

Advertisements
Track Severe Weather on mobile